Time;durP1;ratioP1;P1;durP2;ratioP2;P2;SDS_P1;SDS_P2;PMS_P1;PMS_P2;Temp;Humidity;BMP_temperature;BMP_pressure;BME280_temperature;BME280_humidity;BME280_pressure;Samples;Min_cycle;Max_cycle;Signal;HPM_P1;HPM_P2
2021/08/02 00:01:36;;;;;;;1.73;0.73;;;14.90;81.90;;;;;;6205024;23;20029;-74
2021/08/02 00:04:07;;;;;;;1.27;0.60;;;14.90;82.00;;;;;;6215436;23;20071;-77
2021/08/02 00:06:48;;;;;;;1.25;0.70;;;14.90;82.00;;;;;;6214122;23;20055;-76
2021/08/02 00:09:17;;;;;;;2.17;0.85;;;14.90;82.20;;;;;;6212433;23;20336;-75
2021/08/02 00:11:50;;;;;;;2.55;0.80;;;14.90;82.30;;;;;;6212662;23;20289;-75
2021/08/02 00:14:20;;;;;;;5.45;1.10;;;14.80;82.60;;;;;;6216908;23;20024;-76
2021/08/02 00:16:48;;;;;;;2.80;0.70;;;14.70;83.00;;;;;;6214480;23;20072;-76
2021/08/02 00:19:15;;;;;;;3.08;0.73;;;14.60;83.30;;;;;;6211231;23;20047;-76
2021/08/02 00:21:44;;;;;;;5.13;1.02;;;14.60;83.30;;;;;;6211157;23;20312;-76
2021/08/02 00:24:12;;;;;;;1.60;0.50;;;14.60;83.20;;;;;;6215890;23;20101;-76
2021/08/02 00:26:40;;;;;;;2.58;0.93;;;14.60;83.30;;;;;;6214457;23;20027;-76
2021/08/02 00:29:08;;;;;;;0.80;0.52;;;14.60;83.30;;;;;;6218764;23;20312;-76
2021/08/02 00:31:36;;;;;;;1.40;0.85;;;14.60;83.50;;;;;;6218746;23;20083;-77
2021/08/02 00:34:04;;;;;;;4.22;1.00;;;14.60;83.40;;;;;;6218730;23;20035;-78
2021/08/02 00:36:39;;;;;;;1.58;0.80;;;14.60;83.50;;;;;;6214843;23;20035;-76
2021/08/02 00:39:15;;;;;;;2.47;0.88;;;14.50;83.60;;;;;;6217048;23;20034;-75
2021/08/02 00:42:26;;;;;;;1.92;0.65;;;14.40;83.90;;;;;;6216347;23;20020;-76
2021/08/02 00:45:19;;;;;;;1.40;0.75;;;14.30;84.30;;;;;;6219176;23;20032;-77
2021/08/02 00:47:54;;;;;;;2.00;0.90;;;14.30;84.50;;;;;;6218446;23;20028;-74
2021/08/02 00:50:25;;;;;;;1.33;0.80;;;14.20;84.70;;;;;;6211103;23;20115;-74
2021/08/02 00:52:56;;;;;;;3.40;1.10;;;14.20;85.00;;;;;;6214336;23;20202;-76
2021/08/02 00:55:29;;;;;;;1.67;0.85;;;14.20;85.00;;;;;;6215483;23;20399;-76
2021/08/02 00:57:59;;;;;;;2.33;0.70;;;14.20;85.00;;;;;;6214324;23;20071;-76
2021/08/02 01:00:26;;;;;;;2.17;0.88;;;14.20;85.00;;;;;;6211324;23;20240;-77
2021/08/02 01:02:57;;;;;;;1.70;0.80;;;14.30;85.00;;;;;;6217172;23;20051;-76
2021/08/02 01:05:26;;;;;;;3.75;0.68;;;14.20;85.10;;;;;;6216252;23;20228;-76
2021/08/02 01:08:01;;;;;;;3.63;1.13;;;14.20;85.30;;;;;;6214832;23;20036;-76
2021/08/02 01:10:34;;;;;;;3.67;1.38;;;14.20;85.20;;;;;;6215299;23;20025;-76
2021/08/02 01:13:06;;;;;;;1.13;0.77;;;14.20;85.10;;;;;;6214936;23;20208;-76
2021/08/02 01:15:35;;;;;;;3.13;0.77;;;14.20;84.90;;;;;;6216340;23;20028;-76
2021/08/02 01:18:04;;;;;;;1.70;0.82;;;14.30;84.90;;;;;;6216870;23;20075;-76
2021/08/02 01:20:43;;;;;;;2.15;0.80;;;14.30;84.80;;;;;;6213608;23;20079;-76
2021/08/02 01:23:21;;;;;;;3.10;0.80;;;14.30;84.80;;;;;;6218858;23;20024;-74
2021/08/02 01:26:16;;;;;;;2.13;0.80;;;14.30;84.80;;;;;;6216944;23;20024;-75
2021/08/02 01:29:21;;;;;;;3.92;0.98;;;14.40;84.60;;;;;;6216750;23;20062;-76
2021/08/02 01:31:49;;;;;;;2.35;1.17;;;14.40;84.60;;;;;;6215724;23;20016;-76
2021/08/02 01:34:20;;;;;;;2.13;1.00;;;14.40;84.60;;;;;;6216267;23;20036;-77
2021/08/02 01:36:48;;;;;;;3.67;1.02;;;14.40;84.50;;;;;;6214979;23;20083;-74
2021/08/02 01:39:18;;;;;;;3.22;1.05;;;14.50;84.30;;;;;;6215949;23;20028;-75
2021/08/02 01:41:45;;;;;;;2.00;0.82;;;14.50;84.20;;;;;;6216440;23;20212;-75
2021/08/02 01:44:13;;;;;;;1.90;0.90;;;14.60;84.10;;;;;;6219605;23;20081;-76
2021/08/02 01:46:50;;;;;;;2.47;0.80;;;14.60;83.90;;;;;;6218504;23;20024;-76
2021/08/02 01:49:28;;;;;;;5.68;0.90;;;14.60;84.00;;;;;;6218941;23;20028;-77
2021/08/02 01:51:59;;;;;;;1.83;0.88;;;14.60;83.90;;;;;;6219068;23;20055;-77
2021/08/02 01:54:41;;;;;;;2.05;0.82;;;14.70;83.80;;;;;;6216381;23;20228;-77
2021/08/02 01:57:15;;;;;;;2.30;1.00;;;14.70;83.80;;;;;;6217306;23;20035;-76
2021/08/02 02:00:01;;;;;;;3.00;0.75;;;14.70;83.80;;;;;;6216983;23;20016;-75
2021/08/02 02:02:51;;;;;;;1.75;0.80;;;14.70;83.80;;;;;;6218572;23;20127;-76
2021/08/02 02:05:22;;;;;;;3.17;0.90;;;14.70;83.90;;;;;;6212326;23;20032;-76
2021/08/02 02:07:59;;;;;;;3.83;1.27;;;14.60;84.00;;;;;;6218658;23;20029;-76
2021/08/02 02:10:40;;;;;;;1.75;0.80;;;14.60;84.10;;;;;;6219981;23;20032;-77
2021/08/02 02:13:15;;;;;;;1.92;0.80;;;14.70;84.00;;;;;;6219815;23;20256;-77
2021/08/02 02:15:45;;;;;;;2.00;0.80;;;14.70;84.00;;;;;;6217238;23;20088;-76
2021/08/02 02:18:15;;;;;;;2.35;1.00;;;14.70;83.90;;;;;;6216244;23;20025;-76
2021/08/02 02:20:44;;;;;;;2.42;1.25;;;14.70;84.00;;;;;;6214917;23;20024;-76
2021/08/02 02:23:16;;;;;;;1.30;0.60;;;14.60;84.30;;;;;;6215157;23;20016;-76
2021/08/02 02:25:47;;;;;;;3.35;1.05;;;14.60;84.40;;;;;;6212409;23;20032;-76
2021/08/02 02:28:20;;;;;;;2.22;0.88;;;14.60;84.50;;;;;;6213430;23;20075;-76
2021/08/02 02:30:50;;;;;;;;;;;14.60;84.60;;;;;;6188517;23;20020;-76
2021/08/02 02:33:19;;;;;;;2.47;1.27;;;14.60;84.60;;;;;;6189468;23;20180;-76
2021/08/02 02:35:50;;;;;;;2.58;0.90;;;14.50;84.80;;;;;;6187270;23;20435;-76
2021/08/02 02:38:19;;;;;;;2.60;0.80;;;14.50;84.90;;;;;;6189581;23;20347;-76
2021/08/02 02:40:49;;;;;;;1.88;0.77;;;14.50;84.80;;;;;;6160793;23;20059;-76
2021/08/02 02:43:18;;;;;;;2.22;1.08;;;14.60;84.70;;;;;;6190171;23;20272;-76
2021/08/02 02:45:48;;;;;;;2.72;1.38;;;14.60;84.60;;;;;;6164023;23;20029;-76
2021/08/02 02:48:16;;;;;;;4.20;1.10;;;14.60;84.60;;;;;;6187558;23;20023;-76
2021/08/02 02:50:46;;;;;;;3.25;1.02;;;14.60;84.60;;;;;;6161023;23;20050;-76
2021/08/02 02:53:18;;;;;;;3.33;1.25;;;14.60;84.60;;;;;;6188808;23;20297;-76
2021/08/02 02:55:49;;;;;;;2.35;0.90;;;14.60;84.60;;;;;;6189379;23;20044;-76
2021/08/02 02:58:18;;;;;;;3.53;1.10;;;14.60;84.70;;;;;;6167424;23;20029;-76
2021/08/02 03:00:49;;;;;;;1.48;0.80;;;14.60;84.60;;;;;;6187584;23;20031;-76
2021/08/02 03:03:22;;;;;;;3.45;1.02;;;14.60;84.70;;;;;;6191284;23;20213;-76
2021/08/02 03:05:52;;;;;;;2.40;1.10;;;14.50;84.60;;;;;;6164657;23;20335;-76
2021/08/02 03:08:23;;;;;;;1.25;0.80;;;14.50;84.80;;;;;;6188283;23;20115;-76
2021/08/02 03:10:53;;;;;;;1.98;0.95;;;14.50;84.70;;;;;;6185391;23;20249;-76
2021/08/02 03:13:21;;;;;;;5.20;1.00;;;14.50;84.80;;;;;;6186173;23;20265;-76
2021/08/02 03:15:49;;;;;;;2.25;1.10;;;14.40;84.80;;;;;;6186764;23;20016;-76
2021/08/02 03:18:16;;;;;;;2.25;1.08;;;14.40;84.90;;;;;;6188149;23;20068;-76
2021/08/02 03:20:44;;;;;;;2.03;1.02;;;14.40;84.90;;;;;;6190685;23;20260;-76
2021/08/02 03:23:17;;;;;;;7.35;1.10;;;14.40;84.90;;;;;;6190009;23;20040;-76
2021/08/02 03:25:47;;;;;;;2.67;1.10;;;14.40;85.00;;;;;;6187316;23;20051;-76
2021/08/02 03:28:20;;;;;;;;;;;14.40;84.90;;;;;;6190124;23;20063;-76
2021/08/02 03:30:51;;;;;;;2.33;1.00;;;14.40;84.90;;;;;;6219272;23;19927;-76
2021/08/02 03:33:25;;;;;;;2.67;1.00;;;14.50;84.80;;;;;;6218793;23;20131;-76
2021/08/02 03:35:55;;;;;;;1.73;0.75;;;14.50;84.70;;;;;;6219525;23;20016;-76
2021/08/02 03:38:23;;;;;;;2.60;1.13;;;14.50;84.50;;;;;;6218170;23;20032;-76
2021/08/02 03:40:52;;;;;;;2.03;0.63;;;14.60;84.50;;;;;;6219087;23;20046;-76
2021/08/02 03:43:21;;;;;;;1.67;0.93;;;14.60;84.40;;;;;;6218140;23;20047;-76
2021/08/02 03:45:49;;;;;;;2.63;0.98;;;14.70;84.00;;;;;;6220916;23;20016;-76
2021/08/02 03:48:19;;;;;;;2.55;1.13;;;14.80;83.60;;;;;;6218971;23;20031;-78
2021/08/02 03:50:47;;;;;;;2.08;1.10;;;14.80;83.70;;;;;;6221211;23;20016;-76
2021/08/02 03:53:15;;;;;;;3.22;1.08;;;14.80;83.60;;;;;;6220699;23;20027;-76
2021/08/02 03:55:44;;;;;;;2.25;0.98;;;14.90;83.70;;;;;;6221352;23;20024;-77
2021/08/02 03:58:12;;;;;;;1.80;0.90;;;14.80;83.80;;;;;;6221905;23;20035;-76
2021/08/02 04:00:41;;;;;;;2.70;0.98;;;14.90;83.80;;;;;;6212986;23;20020;-76
2021/08/02 04:03:09;;;;;;;1.77;1.00;;;14.90;83.70;;;;;;6220175;23;20028;-76
2021/08/02 04:05:36;;;;;;;2.10;1.02;;;14.90;83.70;;;;;;6218706;23;20032;-76
2021/08/02 04:08:04;;;;;;;1.77;0.88;;;14.80;83.80;;;;;;6220090;23;20016;-76
2021/08/02 04:10:33;;;;;;;1.90;0.98;;;14.80;83.80;;;;;;6218946;23;20025;-76
2021/08/02 04:13:00;;;;;;;3.70;1.63;;;14.90;83.90;;;;;;6214304;23;20275;-76
2021/08/02 04:15:27;;;;;;;2.22;1.20;;;14.90;83.70;;;;;;6220405;23;20017;-76
2021/08/02 04:17:57;;;;;;;2.67;1.10;;;14.80;83.80;;;;;;6214684;23;20028;-76
2021/08/02 04:20:25;;;;;;;3.45;1.08;;;14.90;83.80;;;;;;6214354;23;20275;-76
2021/08/02 04:22:52;;;;;;;3.75;1.20;;;14.90;83.90;;;;;;6215629;23;20028;-76
2021/08/02 04:25:19;;;;;;;4.05;1.40;;;14.80;84.00;;;;;;6215590;23;20328;-76
2021/08/02 04:27:47;;;;;;;2.05;0.82;;;14.80;84.10;;;;;;6215524;23;20320;-76
2021/08/02 04:30:16;;;;;;;3.10;1.00;;;14.90;84.00;;;;;;6214586;23;20040;-76
2021/08/02 04:32:44;;;;;;;3.70;1.83;;;14.90;83.90;;;;;;6215921;23;20095;-76
2021/08/02 04:35:13;;;;;;;2.70;1.08;;;14.90;83.90;;;;;;6217815;23;20040;-77
2021/08/02 04:37:40;;;;;;;2.63;0.88;;;15.00;83.60;;;;;;6216165;23;20231;-77
2021/08/02 04:40:09;;;;;;;1.85;1.05;;;15.10;83.30;;;;;;6214724;23;20021;-77
2021/08/02 04:42:36;;;;;;;2.40;0.95;;;15.10;83.20;;;;;;6216414;23;20024;-77
2021/08/02 04:45:04;;;;;;;2.75;0.90;;;15.10;83.00;;;;;;6217213;23;20021;-75
2021/08/02 04:47:32;;;;;;;2.03;1.00;;;15.10;82.90;;;;;;6217798;23;20220;-76
2021/08/02 04:50:00;;;;;;;4.20;1.00;;;15.20;82.80;;;;;;6214361;23;20025;-76
2021/08/02 04:52:29;;;;;;;2.40;1.10;;;15.20;82.70;;;;;;6212610;23;20396;-75
2021/08/02 04:54:57;;;;;;;2.83;1.23;;;15.20;82.80;;;;;;6214599;23;20013;-75
2021/08/02 04:57:24;;;;;;;1.90;1.00;;;15.20;82.70;;;;;;6215172;23;20049;-78
2021/08/02 04:59:51;;;;;;;2.97;0.90;;;15.30;82.50;;;;;;6214334;23;20035;-75
2021/08/02 05:02:19;;;;;;;2.58;0.93;;;15.20;82.50;;;;;;6210373;23;20360;-75
2021/08/02 05:04:46;;;;;;;2.63;1.20;;;15.20;82.50;;;;;;6213159;23;20017;-76
2021/08/02 05:07:13;;;;;;;4.18;1.50;;;15.20;82.60;;;;;;6212572;23;20024;-76
2021/08/02 05:09:42;;;;;;;2.97;1.20;;;15.20;82.60;;;;;;6217478;23;20256;-76
2021/08/02 05:12:11;;;;;;;2.85;1.00;;;15.30;82.70;;;;;;6216302;23;20070;-76
2021/08/02 05:14:39;;;;;;;2.40;1.00;;;15.20;82.70;;;;;;6215775;23;20043;-76
2021/08/02 05:17:07;;;;;;;3.03;0.98;;;15.20;82.60;;;;;;6215671;23;20036;-76
2021/08/02 05:19:35;;;;;;;2.15;1.05;;;15.30;82.70;;;;;;6218238;23;20359;-76
2021/08/02 05:22:02;;;;;;;3.72;1.00;;;15.20;82.70;;;;;;6212335;23;20028;-76
2021/08/02 05:24:29;;;;;;;2.53;1.13;;;15.20;82.70;;;;;;6214284;23;20029;-76
2021/08/02 05:26:58;;;;;;;2.00;0.95;;;15.30;82.80;;;;;;6214073;23;20025;-76
2021/08/02 05:29:25;;;;;;;2.22;1.10;;;15.30;82.80;;;;;;6216819;23;20433;-76
2021/08/02 05:31:52;;;;;;;1.83;1.02;;;15.40;82.40;;;;;;6215612;23;20016;-77
2021/08/02 05:34:20;;;;;;;4.95;1.40;;;15.50;82.20;;;;;;6215667;23;20020;-76
2021/08/02 05:36:47;;;;;;;3.92;1.25;;;15.50;82.20;;;;;;6217082;23;20312;-76
2021/08/02 05:39:14;;;;;;;3.53;1.55;;;15.50;82.10;;;;;;6214882;23;20091;-77
2021/08/02 05:41:43;;;;;;;6.63;1.33;;;15.50;82.30;;;;;;6214338;23;20028;-76
2021/08/02 05:44:12;;;;;;;5.10;1.23;;;15.50;82.30;;;;;;6218916;23;20320;-76
2021/08/02 05:46:39;;;;;;;3.83;1.30;;;15.50;82.30;;;;;;6217045;23;20072;-76
2021/08/02 05:49:08;;;;;;;3.60;1.60;;;15.50;82.40;;;;;;6214695;23;20283;-76
2021/08/02 05:51:35;;;;;;;2.40;1.23;;;15.40;82.70;;;;;;6218146;23;20024;-76
2021/08/02 05:54:03;;;;;;;4.00;1.35;;;15.40;82.80;;;;;;6218977;23;20321;-76
2021/08/02 05:56:31;;;;;;;2.95;1.20;;;15.40;82.80;;;;;;6216027;23;20324;-76
2021/08/02 05:58:58;;;;;;;4.53;1.40;;;15.40;82.80;;;;;;6238430;23;20071;-76
2021/08/02 06:01:27;;;;;;;2.53;1.10;;;15.50;82.60;;;;;;6214193;23;20017;-76
2021/08/02 06:03:54;;;;;;;4.68;1.48;;;15.30;83.00;;;;;;6214858;23;20312;-76
2021/08/02 06:06:21;;;;;;;3.63;1.55;;;15.30;83.20;;;;;;6217431;23;20062;-76
2021/08/02 06:08:48;;;;;;;4.65;1.83;;;15.30;83.40;;;;;;6217446;23;20353;-76
2021/08/02 06:11:16;;;;;;;2.90;1.17;;;15.30;83.30;;;;;;6216247;23;20084;-76
2021/08/02 06:13:43;;;;;;;3.53;1.23;;;15.30;83.20;;;;;;6217461;23;20323;-76
2021/08/02 06:16:10;;;;;;;3.33;1.45;;;15.30;83.30;;;;;;6215338;23;20025;-76
2021/08/02 06:18:39;;;;;;;2.13;1.23;;;15.50;83.00;;;;;;6220640;23;20016;-76
2021/08/02 06:21:06;;;;;;;4.00;1.58;;;15.60;82.80;;;;;;6218769;23;20025;-76
2021/08/02 06:23:33;;;;;;;2.20;1.05;;;15.70;81.90;;;;;;6214120;23;20267;-76
2021/08/02 06:26:00;;;;;;;2.53;1.17;;;15.90;81.70;;;;;;6215987;23;20027;-76
2021/08/02 06:28:30;;;;;;;3.55;1.58;;;16.00;81.30;;;;;;6217618;23;20024;-76
2021/08/02 06:31:00;;;;;;;2.63;1.30;;;16.00;81.30;;;;;;6214391;23;20028;-76
2021/08/02 06:33:30;;;;;;;3.55;1.48;;;16.10;81.00;;;;;;6215754;23;20052;-77
2021/08/02 06:35:59;;;;;;;4.18;1.52;;;16.20;80.90;;;;;;6215295;23;20024;-77
2021/08/02 06:38:32;;;;;;;3.65;1.45;;;16.50;80.10;;;;;;6217002;23;20028;-76
2021/08/02 06:40:59;;;;;;;4.97;1.23;;;16.60;79.60;;;;;;6215736;23;20051;-76
2021/08/02 06:43:27;;;;;;;4.38;1.45;;;16.70;78.70;;;;;;6217408;23;20088;-76
2021/08/02 06:45:54;;;;;;;6.03;1.40;;;16.70;79.00;;;;;;6214476;23;20363;-76
2021/08/02 06:48:22;;;;;;;3.95;1.70;;;16.60;79.20;;;;;;6214842;23;20025;-75
2021/08/02 06:50:50;;;;;;;3.25;1.50;;;16.60;79.30;;;;;;6215781;23;20080;-77
2021/08/02 06:53:19;;;;;;;3.47;1.33;;;16.70;78.70;;;;;;6219899;23;20017;-77
2021/08/02 06:55:47;;;;;;;3.65;1.40;;;16.80;78.60;;;;;;6218629;23;20232;-77
2021/08/02 06:58:16;;;;;;;3.67;1.58;;;16.80;78.20;;;;;;6213470;23;20090;-77
2021/08/02 07:00:44;;;;;;;3.90;1.10;;;16.60;78.60;;;;;;6211128;23;20033;-77
2021/08/02 07:03:11;;;;;;;6.53;2.00;;;16.70;78.80;;;;;;6217136;23;20021;-77
2021/08/02 07:05:38;;;;;;;4.38;1.40;;;16.40;79.50;;;;;;6217048;23;20185;-78
2021/08/02 07:08:05;;;;;;;2.47;1.40;;;16.30;80.00;;;;;;6219757;23;20023;-77
2021/08/02 07:10:34;;;;;;;2.67;1.50;;;16.40;79.80;;;;;;6219291;23;20028;-77
2021/08/02 07:13:01;;;;;;;4.20;1.73;;;16.40;79.40;;;;;;6220262;23;20008;-77
2021/08/02 07:15:29;;;;;;;5.00;1.88;;;16.30;79.70;;;;;;6219389;23;20048;-78
2021/08/02 07:17:56;;;;;;;3.30;1.60;;;16.30;79.90;;;;;;6219167;23;20094;-77
2021/08/02 07:20:24;;;;;;;3.30;1.42;;;16.40;79.90;;;;;;6218601;23;20074;-77
2021/08/02 07:22:52;;;;;;;3.25;1.50;;;16.60;79.90;;;;;;6218074;23;20020;-77
2021/08/02 07:25:19;;;;;;;3.88;1.45;;;16.60;79.30;;;;;;6216582;23;20024;-77
2021/08/02 07:27:48;;;;;;;4.35;1.85;;;16.80;78.90;;;;;;6218626;23;20024;-77
2021/08/02 07:30:16;;;;;;;3.60;1.48;;;16.90;78.20;;;;;;6218174;23;20037;-78
2021/08/02 07:32:43;;;;;;;4.55;1.90;;;17.10;78.10;;;;;;6217635;23;20025;-77
2021/08/02 07:35:11;;;;;;;3.40;1.85;;;17.40;77.60;;;;;;6217581;23;20025;-77
2021/08/02 07:37:42;;;;;;;3.60;1.90;;;17.50;76.80;;;;;;6218664;23;20094;-77
2021/08/02 07:40:11;;;;;;;5.28;2.00;;;17.80;76.30;;;;;;6218412;23;20075;-75
2021/08/02 07:42:38;;;;;;;5.60;2.17;;;18.10;75.20;;;;;;6218646;23;20041;-77
2021/08/02 07:45:08;;;;;;;8.25;2.20;;;18.10;74.80;;;;;;6217488;23;20205;-77
2021/08/02 07:47:35;;;;;;;4.50;2.10;;;18.10;74.60;;;;;;6211616;23;20028;-77
2021/08/02 07:50:05;;;;;;;6.78;2.67;;;18.00;74.80;;;;;;6217020;23;20072;-77
2021/08/02 07:52:33;;;;;;;5.60;2.35;;;18.00;74.70;;;;;;6216583;23;20320;-78
2021/08/02 07:55:01;;;;;;;5.93;2.50;;;18.10;74.60;;;;;;6216107;23;20024;-76
2021/08/02 07:57:35;;;;;;;5.10;2.42;;;18.30;73.70;;;;;;6219684;23;20016;-77
2021/08/02 08:00:03;;;;;;;4.80;2.58;;;18.50;72.70;;;;;;6217383;23;20051;-77
2021/08/02 08:02:38;;;;;;;4.80;2.20;;;18.60;71.60;;;;;;6214224;23;20119;-77
2021/08/02 08:05:06;;;;;;;4.40;1.83;;;18.90;71.90;;;;;;6216795;23;20028;-77
2021/08/02 08:07:42;;;;;;;6.75;2.15;;;19.10;70.20;;;;;;6217191;23;20016;-77
2021/08/02 08:10:11;;;;;;;6.85;2.67;;;19.40;69.40;;;;;;6213831;23;20288;-77
2021/08/02 08:12:39;;;;;;;3.03;1.60;;;19.40;68.90;;;;;;6216948;23;20016;-77
2021/08/02 08:15:08;;;;;;;6.07;2.22;;;19.70;68.60;;;;;;6217269;23;20043;-77
2021/08/02 08:17:39;;;;;;;6.10;2.88;;;19.90;67.60;;;;;;6218053;23;20288;-77
2021/08/02 08:20:09;;;;;;;4.75;2.03;;;19.90;67.60;;;;;;6215191;23;20087;-77
2021/08/02 08:22:37;;;;;;;4.28;1.85;;;20.10;67.60;;;;;;6215914;23;20323;-77
2021/08/02 08:25:06;;;;;;;6.43;2.03;;;20.50;65.80;;;;;;6215275;23;20024;-77
2021/08/02 08:27:34;;;;;;;4.90;2.45;;;20.40;65.90;;;;;;6211350;23;20036;-76
2021/08/02 08:30:02;;;;;;;5.18;2.40;;;20.20;65.40;;;;;;6217952;23;20032;-77
2021/08/02 08:32:30;;;;;;;5.05;2.00;;;20.20;64.90;;;;;;6218310;23;20312;-77
2021/08/02 08:34:59;;;;;;;4.38;1.80;;;20.10;65.30;;;;;;6215594;23;20025;-76
2021/08/02 08:37:26;;;;;;;3.85;2.08;;;20.20;64.90;;;;;;6215184;23;20465;-77
2021/08/02 08:39:53;;;;;;;4.30;1.63;;;20.10;65.90;;;;;;6213897;23;20016;-77
2021/08/02 08:42:21;;;;;;;4.38;1.70;;;20.10;65.10;;;;;;6217215;23;20248;-77
2021/08/02 08:44:48;;;;;;;2.78;1.70;;;20.10;64.00;;;;;;6216698;23;20005;-77
2021/08/02 08:47:16;;;;;;;4.53;2.13;;;20.20;64.70;;;;;;6215020;23;20032;-77
2021/08/02 08:49:43;;;;;;;3.85;1.50;;;20.30;64.50;;;;;;6217778;23;20209;-77
2021/08/02 08:52:15;;;;;;;4.88;1.80;;;20.20;63.80;;;;;;6215005;23;20260;-76
2021/08/02 08:54:43;;;;;;;3.40;1.65;;;20.20;62.70;;;;;;6217903;23;20020;-76
2021/08/02 08:57:11;;;;;;;4.47;2.17;;;20.30;63.90;;;;;;6215943;23;20368;-76
2021/08/02 08:59:49;;;;;;;5.25;2.08;;;20.50;63.50;;;;;;6216887;23;20040;-76
2021/08/02 09:02:26;;;;;;;2.88;1.70;;;20.50;63.30;;;;;;6213805;23;20047;-76
2021/08/02 09:04:54;;;;;;;4.72;1.63;;;20.60;62.40;;;;;;6215916;23;20252;-77
2021/08/02 09:07:34;;;;;;;4.53;1.85;;;20.80;62.00;;;;;;6214695;23;20016;-77
2021/08/02 09:10:02;;;;;;;;;;;21.10;61.50;;;;;;6219249;23;20024;-77
2021/08/02 09:12:29;;;;;;;3.58;1.60;;;21.20;61.00;;;;;;6217767;23;19924;-76
2021/08/02 09:14:58;;;;;;;6.38;1.88;;;21.20;61.30;;;;;;6217721;23;20021;-77
2021/08/02 09:17:30;;;;;;;2.23;1.30;;;21.40;60.50;;;;;;6213009;23;20051;-77
2021/08/02 09:19:57;;;;;;;5.50;1.60;;;21.30;60.80;;;;;;6215647;23;20103;-77
2021/08/02 09:22:36;;;;;;;4.20;2.08;;;21.10;60.30;;;;;;6215805;23;20360;-76
2021/08/02 09:25:14;;;;;;;5.22;1.67;;;21.30;60.90;;;;;;6215631;23;20066;-77
2021/08/02 09:27:43;;;;;;;3.67;1.70;;;21.20;60.50;;;;;;6216096;23;20024;-77
2021/08/02 09:30:18;;;;;;;2.50;1.40;;;21.20;61.00;;;;;;6215092;23;20017;-77
2021/08/02 09:32:50;;;;;;;2.85;1.63;;;21.60;61.50;;;;;;6238604;23;20032;-76
2021/08/02 09:35:28;;;;;;;3.67;1.33;;;21.50;60.40;;;;;;6214285;23;20028;-77
2021/08/02 09:37:59;;;;;;;3.22;1.30;;;21.50;60.70;;;;;;6215996;23;20016;-76
2021/08/02 09:40:26;;;;;;;3.05;1.40;;;21.40;61.00;;;;;;6216910;23;20087;-77
2021/08/02 09:42:57;;;;;;;3.25;1.20;;;21.30;60.80;;;;;;6216743;23;20024;-77
2021/08/02 09:45:26;;;;;;;3.20;1.30;;;21.40;60.80;;;;;;6213190;23;20025;-77
2021/08/02 09:47:54;;;;;;;3.03;1.40;;;21.30;59.20;;;;;;6215144;23;20554;-77
2021/08/02 09:50:32;;;;;;;3.35;1.33;;;21.10;60.30;;;;;;6213558;23;20028;-77
2021/08/02 09:53:01;;;;;;;2.22;1.02;;;21.10;60.40;;;;;;6218476;23;20024;-77
2021/08/02 09:55:31;;;;;;;3.90;1.20;;;21.60;60.40;;;;;;6216611;23;20021;-77
2021/08/02 09:57:58;;;;;;;2.22;1.15;;;22.00;59.50;;;;;;6218009;23;20443;-76
2021/08/02 10:00:27;;;;;;;2.22;1.20;;;22.50;57.20;;;;;;6211385;23;20550;-77
2021/08/02 10:02:55;;;;;;;3.58;1.40;;;22.70;55.70;;;;;;6215159;23;20271;-76
2021/08/02 10:05:23;;;;;;;2.55;1.02;;;22.60;56.70;;;;;;6215411;23;20020;-77
2021/08/02 10:07:50;;;;;;;2.10;1.02;;;22.90;56.00;;;;;;6215328;23;20028;-75
2021/08/02 10:10:18;;;;;;;2.53;0.98;;;23.00;55.70;;;;;;6214006;23;20020;-77
2021/08/02 10:12:48;;;;;;;1.88;0.95;;;22.70;54.50;;;;;;6216744;23;20060;-77
2021/08/02 10:15:18;;;;;;;4.15;1.10;;;22.20;56.40;;;;;;6216268;23;20028;-77
2021/08/02 10:17:48;;;;;;;3.53;1.10;;;22.90;53.30;;;;;;6215803;23;20028;-77
2021/08/02 10:20:26;;;;;;;1.40;0.90;;;23.90;52.10;;;;;;6217824;23;20024;-77
2021/08/02 10:22:55;;;;;;;4.78;1.20;;;23.60;52.60;;;;;;6218258;23;20082;-77
2021/08/02 10:25:37;;;;;;;2.15;1.00;;;24.60;49.50;;;;;;6215237;23;20270;-77
2021/08/02 10:28:10;;;;;;;1.75;0.85;;;24.90;48.80;;;;;;6216498;23;20313;-77
2021/08/02 10:30:37;;;;;;;1.15;0.77;;;26.10;44.70;;;;;;6218251;23;20366;-77
2021/08/02 10:33:04;;;;;;;3.03;0.90;;;26.30;44.50;;;;;;6217646;23;20040;-77
2021/08/02 10:35:34;;;;;;;2.42;0.80;;;24.50;47.30;;;;;;6219518;23;20196;-77
2021/08/02 10:38:03;;;;;;;2.85;0.80;;;23.80;48.40;;;;;;6218437;23;20050;-76
2021/08/02 10:40:42;;;;;;;2.15;1.02;;;24.30;47.80;;;;;;6219650;23;20048;-76
2021/08/02 10:43:11;;;;;;;1.80;0.63;;;25.00;47.40;;;;;;6217400;23;20025;-77
2021/08/02 10:45:41;;;;;;;3.70;1.00;;;25.90;45.00;;;;;;6215964;23;20076;-77
2021/08/02 10:48:08;;;;;;;2.70;1.00;;;26.30;44.70;;;;;;6218317;23;20051;-77
2021/08/02 10:50:41;;;;;;;1.95;0.80;;;27.90;41.30;;;;;;6217467;23;20017;-78
2021/08/02 10:53:12;;;;;;;4.80;0.93;;;26.60;44.50;;;;;;6217178;23;20076;-77
2021/08/02 10:55:44;;;;;;;1.75;0.88;;;26.10;46.50;;;;;;6222630;23;20332;-77
2021/08/02 10:58:13;;;;;;;2.53;0.70;;;26.60;44.00;;;;;;6219834;23;20040;-78
2021/08/02 11:00:41;;;;;;;2.00;0.87;;;26.20;44.90;;;;;;6215780;23;20028;-77
2021/08/02 11:03:10;;;;;;;2.72;0.80;;;25.80;45.50;;;;;;6219871;23;20071;-77
2021/08/02 11:05:37;;;;;;;3.17;1.13;;;25.30;46.30;;;;;;6217796;23;20032;-77
2021/08/02 11:08:06;;;;;;;1.52;0.70;;;26.00;45.60;;;;;;6213538;23;20423;-77
2021/08/02 11:10:41;;;;;;;2.25;1.20;;;26.80;43.80;;;;;;6217730;23;20021;-77
2021/08/02 11:13:08;;;;;;;2.38;0.70;;;27.70;41.30;;;;;;6215648;23;20375;-77
2021/08/02 11:15:43;;;;;;;1.52;0.90;;;28.90;39.60;;;;;;6217474;23;20336;-77
2021/08/02 11:18:10;;;;;;;3.03;1.00;;;28.70;38.60;;;;;;6214533;23;20281;-77
2021/08/02 11:20:38;;;;;;;2.28;0.70;;;28.50;38.90;;;;;;6214372;23;20354;-77
2021/08/02 11:23:05;;;;;;;2.45;1.02;;;28.50;38.80;;;;;;6217499;23;20304;-77
2021/08/02 11:25:34;;;;;;;1.38;0.75;;;29.10;37.90;;;;;;6217431;23;20017;-78
2021/08/02 11:28:03;;;;;;;2.45;1.00;;;29.30;36.80;;;;;;6217460;23;20090;-77
2021/08/02 11:30:31;;;;;;;1.25;0.70;;;28.80;37.30;;;;;;6214491;23;20025;-77
2021/08/02 11:33:00;;;;;;;1.50;0.65;;;28.10;39.40;;;;;;6215041;23;20111;-76
2021/08/02 11:35:34;;;;;;;1.42;0.70;;;29.90;36.20;;;;;;6216024;23;20047;-78
2021/08/02 11:38:02;;;;;;;4.60;1.00;;;30.20;35.40;;;;;;6217723;23;20334;-76
2021/08/02 11:40:35;;;;;;;3.17;0.95;;;30.80;34.50;;;;;;6215493;23;20051;-76
2021/08/02 11:43:03;;;;;;;3.13;0.80;;;28.90;35.80;;;;;;6213988;23;20024;-76
2021/08/02 11:45:31;;;;;;;2.70;1.02;;;29.80;36.00;;;;;;6216481;23;20017;-77
2021/08/02 11:48:02;;;;;;;4.22;1.10;;;29.70;35.00;;;;;;6214177;23;20063;-77
2021/08/02 11:50:31;;;;;;;1.17;0.68;;;28.70;37.70;;;;;;6214323;23;20023;-77
2021/08/02 11:52:59;;;;;;;3.47;0.85;;;30.00;35.60;;;;;;6216976;23;20026;-77
2021/08/02 11:55:26;;;;;;;2.47;0.90;;;28.90;36.50;;;;;;6191474;23;20033;-77
2021/08/02 11:57:58;;;;;;;2.03;1.00;;;31.30;34.00;;;;;;6215942;23;20293;-77
2021/08/02 12:00:26;;;;;;;3.63;0.95;;;28.80;36.70;;;;;;6213671;23;20590;-77
2021/08/02 12:02:53;;;;;;;1.67;0.93;;;30.10;35.90;;;;;;6217009;23;20024;-76
2021/08/02 12:05:23;;;;;;;1.05;0.70;;;28.10;38.80;;;;;;6216458;23;20084;-76
2021/08/02 12:07:51;;;;;;;2.63;0.80;;;26.30;40.70;;;;;;6218759;23;20051;-76
2021/08/02 12:10:19;;;;;;;2.28;0.82;;;25.90;42.60;;;;;;6216425;23;20312;-76
2021/08/02 12:12:59;;;;;;;1.63;0.90;;;26.20;42.40;;;;;;6219284;23;20024;-76
2021/08/02 12:15:26;;;;;;;2.45;0.98;;;28.80;38.00;;;;;;6210787;23;20071;-76
2021/08/02 12:17:55;;;;;;;2.33;1.05;;;28.60;37.70;;;;;;6218443;23;20027;-76
2021/08/02 12:20:31;;;;;;;2.17;1.30;;;26.50;40.80;;;;;;6216430;23;20324;-76
2021/08/02 12:22:59;;;;;;;2.85;1.00;;;24.90;45.40;;;;;;6216915;23;20402;-76
2021/08/02 12:25:46;;;;;;;1.67;1.17;;;24.60;46.30;;;;;;6216348;23;20047;-76
2021/08/02 12:28:14;;;;;;;4.32;1.23;;;24.10;46.40;;;;;;6215004;23;20051;-76
2021/08/02 12:30:43;;;;;;;2.10;1.00;;;23.60;47.90;;;;;;6215800;23;20025;-75
2021/08/02 12:33:12;;;;;;;3.85;1.00;;;23.50;48.50;;;;;;6217585;23;20083;-78
2021/08/02 12:35:43;;;;;;;2.95;1.17;;;23.50;49.10;;;;;;6217522;23;20324;-75
2021/08/02 12:38:10;;;;;;;1.50;0.75;;;23.20;49.20;;;;;;6214920;23;20028;-76
2021/08/02 12:40:37;;;;;;;1.52;0.93;;;23.10;49.70;;;;;;6215348;23;20095;-76
2021/08/02 12:43:06;;;;;;;2.20;0.82;;;23.30;49.50;;;;;;6217972;23;20024;-76
2021/08/02 12:45:33;;;;;;;3.25;1.13;;;23.30;49.70;;;;;;6216090;23;20013;-75
2021/08/02 12:48:00;;;;;;;1.92;1.10;;;23.60;49.10;;;;;;6216965;23;20251;-75
2021/08/02 12:50:31;;;;;;;1.65;0.88;;;24.10;48.60;;;;;;6218943;23;20308;-76
2021/08/02 12:53:01;;;;;;;3.60;1.15;;;24.30;47.70;;;;;;6214382;23;20021;-76
2021/08/02 12:55:34;;;;;;;2.45;0.95;;;25.30;46.00;;;;;;6216088;23;20020;-78
2021/08/02 12:58:02;;;;;;;2.72;1.15;;;25.30;46.30;;;;;;6216749;23;20035;-77
2021/08/02 13:00:31;;;;;;;4.68;1.00;;;25.10;47.40;;;;;;6211574;23;20028;-77
2021/08/02 13:02:58;;;;;;;3.25;1.02;;;25.60;46.50;;;;;;6218279;23;20020;-77